createdAt,value
2023-02-12T00:00:25.530Z,41.02
2023-02-12T00:01:57.268Z,41.72
2023-02-12T00:03:30.305Z,41.07
2023-02-12T00:05:02.012Z,41.03
2023-02-12T00:06:56.736Z,41.42
2023-02-12T00:08:29.453Z,40.48
2023-02-12T00:10:01.318Z,40.92
2023-02-12T00:13:34.457Z,40.33
2023-02-12T00:15:22.223Z,41.11
2023-02-12T00:16:53.524Z,40.96
2023-02-12T00:18:24.796Z,40.60
2023-02-12T00:19:56.457Z,41.07
2023-02-12T00:21:44.302Z,41.05
2023-02-12T00:23:16.630Z,40.74
2023-02-12T00:24:48.272Z,40.52
2023-02-12T00:26:19.662Z,40.60
2023-02-12T00:27:56.044Z,40.81
2023-02-12T00:29:27.375Z,40.36
2023-02-12T00:30:59.507Z,40.49
2023-02-12T00:32:31.278Z,41.41
2023-02-12T00:34:08.998Z,41.18
2023-02-12T00:36:12.014Z,40.49
2023-02-12T00:37:49.748Z,41.07
2023-02-12T00:39:21.468Z,41.04
2023-02-12T00:40:58.236Z,41.93
2023-02-12T00:42:36.978Z,39.98
2023-02-12T00:44:10.555Z,39.43
2023-02-12T00:45:43.077Z,41.42
2023-02-12T00:47:32.958Z,39.66
2023-02-12T00:49:04.614Z,39.59
2023-02-12T00:50:35.956Z,40.67
2023-02-12T00:52:07.231Z,41.79
2023-02-12T00:53:38.650Z,40.66
2023-02-12T00:55:10.137Z,40.90
2023-02-12T00:56:41.628Z,40.44
2023-02-12T00:58:12.986Z,41.03
2023-02-12T00:59:44.238Z,42.07
2023-02-12T01:01:15.718Z,41.10
2023-02-12T01:02:47.212Z,41.15
2023-02-12T01:04:18.811Z,40.94
2023-02-12T01:05:50.235Z,41.28
2023-02-12T01:07:21.525Z,40.89
2023-02-12T01:08:52.937Z,40.85
2023-02-12T01:10:24.439Z,40.34
2023-02-12T01:11:55.862Z,40.50
2023-02-12T01:13:27.323Z,40.27
2023-02-12T01:14:58.628Z,40.36
2023-02-12T01:16:30.141Z,39.98
2023-02-12T01:18:01.533Z,40.49
2023-02-12T01:19:32.778Z,39.93
2023-02-12T01:21:04.034Z,40.11
2023-02-12T01:22:35.430Z,40.46
2023-02-12T01:24:06.777Z,39.96
2023-02-12T01:25:38.115Z,40.54
2023-02-12T01:27:09.553Z,40.97
2023-02-12T01:28:40.901Z,41.29
2023-02-12T01:30:12.445Z,41.30
2023-02-12T01:31:44.154Z,41.33
2023-02-12T01:33:15.473Z,40.26
2023-02-12T01:34:47.019Z,40.72
2023-02-12T01:36:18.495Z,40.75
2023-02-12T01:37:49.985Z,40.36
2023-02-12T01:39:21.310Z,40.61
2023-02-12T01:40:52.596Z,41.79
2023-02-12T01:42:23.988Z,42.11
2023-02-12T01:43:55.294Z,41.11
2023-02-12T01:45:26.886Z,41.73
2023-02-12T01:46:58.617Z,42.20
2023-02-12T01:48:30.227Z,42.83
2023-02-12T01:50:01.669Z,43.57
2023-02-12T01:51:32.919Z,43.33
2023-02-12T01:53:04.231Z,43.38
2023-02-12T01:54:35.533Z,43.43
2023-02-12T01:56:06.836Z,42.99
2023-02-12T01:57:38.143Z,43.04
2023-02-12T01:59:09.805Z,43.55
2023-02-12T02:00:41.135Z,43.10
2023-02-12T02:02:12.473Z,42.85
2023-02-12T02:03:43.886Z,43.15
2023-02-12T02:05:15.279Z,43.37
2023-02-12T02:06:47.368Z,43.70
2023-02-12T02:08:18.731Z,44.30
2023-02-12T02:09:50.040Z,44.13
2023-02-12T02:11:21.313Z,43.70
2023-02-12T02:12:52.818Z,43.71
2023-02-12T02:14:24.335Z,44.08
2023-02-12T02:15:55.981Z,43.45
2023-02-12T02:17:27.411Z,44.38
2023-02-12T02:18:58.903Z,43.52
2023-02-12T02:20:30.197Z,44.28
2023-02-12T02:22:02.787Z,43.17
2023-02-12T02:23:34.104Z,43.13
2023-02-12T02:25:05.773Z,43.69
2023-02-12T02:26:37.305Z,43.63
2023-02-12T02:28:09.003Z,43.94
2023-02-12T02:29:40.432Z,42.62
2023-02-12T02:31:11.929Z,43.32
2023-02-12T02:32:43.249Z,43.41
2023-02-12T02:34:14.479Z,42.95
2023-02-12T02:35:46.026Z,44.46
2023-02-12T02:37:17.354Z,43.93
2023-02-12T02:39:11.036Z,44.52
2023-02-12T02:40:42.428Z,44.21
2023-02-12T02:42:36.065Z,44.00
2023-02-12T02:44:07.446Z,42.90
2023-02-12T02:45:38.770Z,43.41
2023-02-12T02:47:10.447Z,43.60
2023-02-12T02:48:41.783Z,43.67
2023-02-12T02:50:13.156Z,44.54
2023-02-12T02:51:44.389Z,43.22
2023-02-12T02:53:15.892Z,44.86
2023-02-12T02:54:47.629Z,43.00
2023-02-12T02:56:18.890Z,43.08
2023-02-12T02:57:50.305Z,43.76
2023-02-12T02:59:21.759Z,44.14
2023-02-12T03:00:53.219Z,43.26
2023-02-12T03:02:24.509Z,43.92
2023-02-12T03:03:56.005Z,44.54
2023-02-12T03:05:27.439Z,44.49
2023-02-12T03:06:58.725Z,43.94
2023-02-12T03:08:30.040Z,44.59
2023-02-12T03:10:01.359Z,44.96
2023-02-12T03:11:32.856Z,43.93
2023-02-12T03:13:04.105Z,44.34
2023-02-12T03:14:35.445Z,44.05
2023-02-12T03:16:06.774Z,44.61
2023-02-12T03:17:38.049Z,44.56
2023-02-12T03:19:09.312Z,43.46
2023-02-12T03:20:40.658Z,43.22
2023-02-12T03:22:11.963Z,43.48
2023-02-12T03:23:43.378Z,43.64
2023-02-12T03:25:15.201Z,42.76
2023-02-12T03:26:46.460Z,42.83
2023-02-12T03:28:23.009Z,41.89
2023-02-12T03:29:54.313Z,42.02
2023-02-12T03:31:25.637Z,43.26
2023-02-12T03:32:56.952Z,42.49
2023-02-12T03:34:28.449Z,43.39
2023-02-12T03:35:59.738Z,43.61
2023-02-12T03:37:31.059Z,44.41
2023-02-12T03:39:02.285Z,44.01
2023-02-12T03:40:33.611Z,43.74
2023-02-12T03:42:04.872Z,43.77
2023-02-12T03:43:36.209Z,42.64
2023-02-12T03:45:07.576Z,43.06
2023-02-12T03:46:39.006Z,42.54
2023-02-12T03:48:10.393Z,42.97
2023-02-12T03:49:42.024Z,42.57
2023-02-12T03:51:13.274Z,43.28
2023-02-12T03:52:44.492Z,42.82
2023-02-12T03:54:15.818Z,41.92
2023-02-12T03:55:47.113Z,41.71
2023-02-12T03:57:18.579Z,41.92
2023-02-12T03:58:50.019Z,40.39
2023-02-12T04:00:21.623Z,41.11
2023-02-12T04:01:53.343Z,40.22
2023-02-12T04:03:24.656Z,39.63
2023-02-12T04:04:56.215Z,41.07
2023-02-12T04:06:27.624Z,41.61
2023-02-12T04:08:24.592Z,41.59
2023-02-12T04:09:55.975Z,40.93
2023-02-12T04:11:27.401Z,41.78
2023-02-12T04:12:59.191Z,41.20
2023-02-12T04:14:30.638Z,41.44
2023-02-12T04:16:02.654Z,40.71
2023-02-12T04:17:34.256Z,41.09
2023-02-12T04:19:05.848Z,40.45
2023-02-12T04:20:37.119Z,40.63
2023-02-12T04:22:08.605Z,40.98
2023-02-12T04:23:40.119Z,40.61
2023-02-12T04:25:11.393Z,40.39
2023-02-12T04:26:42.821Z,40.35
2023-02-12T04:28:14.273Z,40.04
2023-02-12T04:29:45.680Z,40.18
2023-02-12T04:31:17.289Z,41.00
2023-02-12T04:32:48.754Z,39.40
2023-02-12T04:34:20.077Z,40.01
2023-02-12T04:35:51.536Z,40.32
2023-02-12T04:37:23.049Z,39.90
2023-02-12T04:38:54.354Z,39.10
2023-02-12T04:40:25.628Z,39.56
2023-02-12T04:41:57.052Z,39.33
2023-02-12T04:43:28.519Z,39.31
2023-02-12T04:45:00.113Z,39.38
2023-02-12T04:46:31.638Z,39.36
2023-02-12T04:48:02.882Z,39.98
2023-02-12T04:49:34.218Z,39.26
2023-02-12T04:51:05.455Z,38.26
2023-02-12T04:52:36.989Z,38.31
2023-02-12T04:54:08.640Z,38.69
2023-02-12T04:55:40.050Z,38.56
2023-02-12T04:57:11.352Z,38.26
2023-02-12T04:58:42.664Z,38.06
2023-02-12T05:00:13.902Z,38.41
2023-02-12T05:01:45.368Z,37.74
2023-02-12T05:03:16.807Z,38.02
2023-02-12T05:04:48.125Z,37.92
2023-02-12T05:06:19.605Z,38.42
2023-02-12T05:07:50.885Z,37.94
2023-02-12T05:09:22.452Z,37.31
2023-02-12T05:10:53.837Z,37.37
2023-02-12T05:12:25.176Z,37.85
2023-02-12T05:13:56.830Z,38.16
2023-02-12T05:15:28.259Z,38.09
2023-02-12T05:16:59.684Z,37.75
2023-02-12T05:18:31.029Z,37.97
2023-02-12T05:20:02.386Z,37.55
2023-02-12T05:21:33.761Z,38.07
2023-02-12T05:23:05.020Z,37.68
2023-02-12T05:24:36.315Z,37.88
2023-02-12T05:26:07.601Z,38.03
2023-02-12T05:27:39.054Z,38.28
2023-02-12T05:29:10.279Z,37.66
2023-02-12T05:30:41.613Z,37.58
2023-02-12T05:32:12.914Z,37.36
2023-02-12T05:33:44.274Z,37.58
2023-02-12T05:35:15.735Z,38.75
2023-02-12T05:36:47.533Z,37.90
2023-02-12T05:38:20.624Z,38.92
2023-02-12T05:39:52.043Z,38.39
2023-02-12T05:41:23.728Z,38.03
2023-02-12T05:42:55.373Z,38.17
2023-02-12T05:44:27.488Z,38.79
2023-02-12T05:45:58.963Z,37.82
2023-02-12T05:47:30.550Z,37.55
2023-02-12T05:49:02.204Z,37.01
2023-02-12T05:50:33.585Z,38.20
2023-02-12T05:52:04.994Z,38.76
2023-02-12T05:53:36.293Z,38.18
2023-02-12T05:55:07.499Z,38.07
2023-02-12T05:56:38.869Z,37.85
2023-02-12T05:58:16.197Z,37.97
2023-02-12T05:59:47.774Z,38.26
2023-02-12T06:01:19.015Z,38.01
2023-02-12T06:02:50.423Z,38.30
2023-02-12T06:04:22.026Z,37.54
2023-02-12T06:05:53.813Z,38.88
2023-02-12T06:07:25.390Z,38.27
2023-02-12T06:08:57.743Z,37.69
2023-02-12T06:10:29.112Z,38.78
2023-02-12T06:12:00.693Z,37.54
2023-02-12T06:13:32.120Z,37.64
2023-02-12T06:15:03.539Z,38.43
2023-02-12T06:16:35.076Z,38.41
2023-02-12T06:18:06.981Z,38.39
2023-02-12T06:19:38.216Z,38.05
2023-02-12T06:21:09.588Z,38.98
2023-02-12T06:22:40.918Z,38.84
2023-02-12T06:24:12.197Z,39.78
2023-02-12T06:25:48.839Z,38.75
2023-02-12T06:27:40.110Z,38.13
2023-02-12T06:29:11.563Z,38.43
2023-02-12T06:30:48.181Z,38.25
2023-02-12T06:32:19.710Z,37.73
2023-02-12T06:34:01.297Z,37.24
2023-02-12T06:35:33.109Z,37.23
2023-02-12T06:37:04.637Z,37.50
2023-02-12T06:38:44.653Z,38.09
2023-02-12T06:40:16.149Z,36.53
2023-02-12T06:41:48.076Z,35.86
2023-02-12T06:43:24.426Z,37.27
2023-02-12T06:44:56.311Z,37.06
2023-02-12T06:46:56.288Z,36.73
2023-02-12T06:48:27.883Z,37.23
2023-02-12T06:49:59.193Z,37.76
2023-02-12T06:51:30.528Z,37.46
2023-02-12T06:53:06.792Z,37.68
2023-02-12T06:54:38.118Z,37.76
2023-02-12T06:56:09.576Z,37.75
2023-02-12T06:57:41.016Z,39.07
2023-02-12T06:59:13.099Z,38.72
2023-02-12T07:00:45.797Z,38.72
2023-02-12T07:02:17.175Z,38.23
2023-02-12T07:03:59.949Z,39.43
2023-02-12T07:05:32.668Z,38.79
2023-02-12T07:07:04.524Z,40.15
2023-02-12T07:08:51.182Z,38.97
2023-02-12T07:10:24.922Z,40.75
2023-02-12T07:11:56.776Z,40.32
2023-02-12T07:13:28.972Z,39.67
2023-02-12T07:15:00.837Z,39.76
2023-02-12T07:16:32.456Z,39.36
2023-02-12T07:18:08.801Z,38.64
2023-02-12T07:19:40.260Z,38.92
2023-02-12T07:21:11.919Z,38.87
2023-02-12T07:22:43.545Z,39.17
2023-02-12T07:24:19.885Z,38.60
2023-02-12T07:25:51.891Z,38.91
2023-02-12T07:27:28.286Z,37.63
2023-02-12T07:29:21.375Z,38.06
2023-02-12T07:30:52.847Z,37.80
2023-02-12T07:32:24.155Z,37.57
2023-02-12T07:34:20.064Z,38.64
2023-02-12T07:36:06.139Z,39.19
2023-02-12T07:37:41.847Z,38.43
2023-02-12T07:39:13.256Z,38.55
2023-02-12T07:40:44.659Z,38.64
2023-02-12T07:42:16.014Z,39.30
2023-02-12T07:43:47.568Z,38.83
2023-02-12T07:45:18.849Z,38.48
2023-02-12T07:46:50.215Z,37.79
2023-02-12T07:48:21.736Z,38.33
2023-02-12T07:49:53.394Z,38.18
2023-02-12T07:51:25.013Z,39.30
2023-02-12T07:52:56.449Z,38.44
2023-02-12T07:54:27.846Z,39.18
2023-02-12T07:56:04.300Z,38.71
2023-02-12T07:58:05.735Z,38.20
2023-02-12T07:59:37.097Z,38.34
2023-02-12T08:01:08.476Z,39.22
2023-02-12T08:02:40.176Z,38.07
2023-02-12T08:04:11.948Z,38.57
2023-02-12T08:05:43.630Z,37.70
2023-02-12T08:07:14.905Z,37.86
2023-02-12T08:08:46.320Z,38.86
2023-02-12T08:10:17.869Z,38.82
2023-02-12T08:11:49.732Z,38.84
2023-02-12T08:13:21.153Z,38.03
2023-02-12T08:14:52.797Z,38.51
2023-02-12T08:16:24.292Z,38.02
2023-02-12T08:17:55.730Z,38.27
2023-02-12T08:19:27.307Z,38.06
2023-02-12T08:20:58.803Z,38.40
2023-02-12T08:22:30.199Z,38.43
2023-02-12T08:24:01.536Z,38.87
2023-02-12T08:25:33.115Z,38.37
2023-02-12T08:27:04.516Z,38.87
2023-02-12T08:28:36.015Z,38.32
2023-02-12T08:30:07.535Z,37.68
2023-02-12T08:31:38.986Z,37.30
2023-02-12T08:33:15.422Z,37.31
2023-02-12T08:34:46.859Z,37.32
2023-02-12T08:36:18.468Z,37.18
2023-02-12T08:37:49.937Z,38.27
2023-02-12T08:39:21.339Z,37.36
2023-02-12T08:40:53.126Z,37.31
2023-02-12T08:42:24.622Z,37.23
2023-02-12T08:43:56.643Z,37.98
2023-02-12T08:45:28.680Z,37.64
2023-02-12T08:47:00.300Z,36.52
2023-02-12T08:48:32.039Z,36.23
2023-02-12T08:50:03.849Z,36.30
2023-02-12T08:51:35.173Z,36.82
2023-02-12T08:53:06.795Z,36.43
2023-02-12T08:54:38.188Z,35.77
2023-02-12T08:56:09.690Z,35.93
2023-02-12T08:57:41.035Z,36.18
2023-02-12T08:59:12.367Z,36.06
2023-02-12T09:00:43.824Z,36.43
2023-02-12T09:02:15.210Z,36.35
2023-02-12T09:03:46.746Z,36.07
2023-02-12T09:05:18.500Z,36.18
2023-02-12T09:06:49.784Z,35.99
2023-02-12T09:08:21.211Z,36.19
2023-02-12T09:09:52.530Z,35.26
2023-02-12T09:11:23.877Z,36.06
2023-02-12T09:12:55.290Z,35.02
2023-02-12T09:14:27.127Z,34.95
2023-02-12T09:15:59.558Z,34.94
2023-02-12T09:17:31.206Z,34.54
2023-02-12T09:19:02.822Z,35.50
2023-02-12T09:20:34.077Z,34.86
2023-02-12T09:22:05.469Z,34.75
2023-02-12T09:23:36.930Z,35.24
2023-02-12T09:25:08.315Z,35.10
2023-02-12T09:26:39.681Z,33.82
2023-02-12T09:28:11.050Z,35.07
2023-02-12T09:29:42.419Z,35.13
2023-02-12T09:31:14.060Z,34.27
2023-02-12T09:32:45.451Z,34.39
2023-02-12T09:34:17.039Z,34.14
2023-02-12T09:35:48.577Z,32.40
2023-02-12T09:37:19.992Z,33.22
2023-02-12T09:38:51.359Z,32.74
2023-02-12T09:40:22.686Z,33.17
2023-02-12T09:41:54.058Z,32.31
2023-02-12T09:43:25.389Z,32.93
2023-02-12T09:44:56.694Z,32.74
2023-02-12T09:46:27.981Z,32.35
2023-02-12T09:48:09.619Z,32.10
2023-02-12T09:49:51.145Z,31.32
2023-02-12T09:51:22.633Z,36.68
2023-02-12T09:52:54.465Z,38.30
2023-02-12T09:54:25.784Z,33.44
2023-02-12T09:55:57.793Z,28.80
2023-02-12T09:57:29.280Z,29.55
2023-02-12T09:59:00.836Z,29.56
2023-02-12T10:00:32.172Z,29.40
2023-02-12T10:02:03.564Z,29.19
2023-02-12T10:03:34.805Z,31.24
2023-02-12T10:05:06.280Z,31.50
2023-02-12T10:06:37.745Z,32.55
2023-02-12T10:08:09.036Z,31.68
2023-02-12T10:09:41.109Z,30.43
2023-02-12T10:11:12.503Z,29.86
2023-02-12T10:12:44.084Z,30.35
2023-02-12T10:14:15.540Z,31.21
2023-02-12T10:15:47.047Z,30.23
2023-02-12T10:17:18.502Z,30.99
2023-02-12T10:18:49.964Z,31.77
2023-02-12T10:20:21.482Z,31.55
2023-02-12T10:21:54.630Z,32.30
2023-02-12T10:23:36.929Z,31.38
2023-02-12T10:25:08.797Z,33.46
2023-02-12T10:26:40.213Z,32.93
2023-02-12T10:28:11.928Z,31.81
2023-02-12T10:29:44.508Z,33.01
2023-02-12T10:31:16.098Z,30.52
2023-02-12T10:32:48.115Z,29.25
2023-02-12T10:34:19.619Z,30.70
2023-02-12T10:35:51.005Z,30.26
2023-02-12T10:37:24.191Z,30.06
2023-02-12T10:38:55.886Z,30.34
2023-02-12T10:40:27.615Z,30.53
2023-02-12T10:41:59.405Z,31.94
2023-02-12T10:43:42.271Z,31.71
2023-02-12T10:45:14.283Z,27.94
2023-02-12T10:46:46.081Z,28.96
2023-02-12T10:48:18.433Z,29.24
2023-02-12T10:49:51.007Z,27.33
2023-02-12T10:51:28.405Z,28.05
2023-02-12T10:53:06.608Z,28.54
2023-02-12T10:54:38.211Z,28.81
2023-02-12T10:56:19.751Z,30.00
2023-02-12T10:57:56.341Z,29.53
2023-02-12T10:59:28.165Z,30.08
2023-02-12T11:00:59.936Z,30.29
2023-02-12T11:02:31.335Z,30.92
2023-02-12T11:04:07.952Z,30.68
2023-02-12T11:05:39.360Z,30.15
2023-02-12T11:07:10.647Z,30.15
2023-02-12T11:08:42.457Z,30.52
2023-02-12T11:10:18.982Z,30.31
2023-02-12T11:11:50.464Z,29.98
2023-02-12T11:13:21.956Z,29.81
2023-02-12T11:14:53.244Z,29.73
2023-02-12T11:16:24.619Z,29.90
2023-02-12T11:17:56.240Z,30.68
2023-02-12T11:19:27.727Z,30.46
2023-02-12T11:20:59.295Z,30.58
2023-02-12T11:22:31.827Z,29.93
2023-02-12T11:24:04.898Z,30.52
2023-02-12T11:25:54.676Z,30.14
2023-02-12T11:27:26.951Z,30.24
2023-02-12T11:28:58.736Z,31.49
2023-02-12T11:30:30.380Z,30.01
2023-02-12T11:32:01.955Z,31.45
2023-02-12T11:33:34.650Z,31.32
2023-02-12T11:35:06.298Z,32.18
2023-02-12T11:36:38.085Z,30.21
2023-02-12T11:38:09.582Z,30.04
2023-02-12T11:39:40.926Z,30.46
2023-02-12T11:41:12.575Z,31.53
2023-02-12T11:42:44.298Z,30.54
2023-02-12T11:44:15.706Z,29.15
2023-02-12T11:45:47.003Z,28.06
2023-02-12T11:47:18.420Z,27.94
2023-02-12T11:48:49.787Z,27.97
2023-02-12T11:50:26.228Z,28.18
2023-02-12T11:51:57.613Z,27.47
2023-02-12T11:53:28.969Z,28.39
2023-02-12T11:55:00.300Z,28.03
2023-02-12T11:56:31.603Z,27.85
2023-02-12T11:58:03.077Z,27.95
2023-02-12T11:59:34.517Z,27.90
2023-02-12T12:01:05.975Z,28.24
2023-02-12T12:02:37.565Z,27.90
2023-02-12T12:04:08.911Z,28.61
2023-02-12T12:05:40.562Z,28.98
2023-02-12T12:07:12.063Z,29.31
2023-02-12T12:08:43.815Z,30.11
2023-02-12T12:10:16.471Z,29.45
2023-02-12T12:11:47.810Z,29.22
2023-02-12T12:13:19.603Z,29.77
2023-02-12T12:14:50.928Z,30.58
2023-02-12T12:16:22.342Z,29.62
2023-02-12T12:17:53.666Z,29.21
2023-02-12T12:19:25.082Z,29.20
2023-02-12T12:20:56.444Z,30.28
2023-02-12T12:22:28.098Z,30.26
2023-02-12T12:23:59.688Z,29.27
2023-02-12T12:25:31.997Z,28.77
2023-02-12T12:27:04.094Z,29.86
2023-02-12T12:28:35.509Z,30.51
2023-02-12T12:30:07.568Z,30.93
2023-02-12T12:31:40.464Z,31.13
2023-02-12T12:33:12.956Z,31.61
2023-02-12T12:34:44.641Z,31.37
2023-02-12T12:36:21.118Z,31.64
2023-02-12T12:37:57.791Z,31.17
2023-02-12T12:39:29.168Z,30.38
2023-02-12T12:41:00.557Z,31.04
2023-02-12T12:42:32.314Z,30.96
2023-02-12T12:44:03.731Z,29.35
2023-02-12T12:45:35.166Z,28.28
2023-02-12T12:47:06.625Z,29.90
2023-02-12T12:48:42.939Z,30.36
2023-02-12T12:50:14.524Z,29.70
2023-02-12T12:51:46.140Z,29.45
2023-02-12T12:53:32.784Z,30.43
2023-02-12T12:55:05.031Z,29.67
2023-02-12T12:56:37.023Z,29.73
2023-02-12T12:58:08.422Z,29.57
2023-02-12T12:59:39.919Z,29.42
2023-02-12T13:01:11.478Z,28.86
2023-02-12T13:02:43.001Z,28.04
2023-02-12T13:04:14.425Z,28.00
2023-02-12T13:05:47.633Z,27.54
2023-02-12T13:07:20.055Z,26.98
2023-02-12T13:08:51.637Z,26.54
2023-02-12T13:10:30.639Z,27.51
2023-02-12T13:12:02.355Z,27.28
2023-02-12T13:13:33.734Z,27.40
2023-02-12T13:15:05.396Z,26.80
2023-02-12T13:16:36.765Z,27.38
2023-02-12T13:18:08.095Z,27.61
2023-02-12T13:19:39.794Z,27.51
2023-02-12T13:21:11.447Z,27.38
2023-02-12T13:22:42.827Z,28.02
2023-02-12T13:24:23.434Z,28.20
2023-02-12T13:26:26.746Z,26.99
2023-02-12T13:27:58.362Z,25.94
2023-02-12T13:29:29.896Z,25.48
2023-02-12T13:31:01.370Z,26.00
2023-02-12T13:32:32.957Z,26.49
2023-02-12T13:34:04.216Z,26.78
2023-02-12T13:35:35.744Z,26.47
2023-02-12T13:37:07.266Z,25.90
2023-02-12T13:38:38.641Z,26.51
2023-02-12T13:40:10.047Z,27.17
2023-02-12T13:41:41.982Z,26.21
2023-02-12T13:43:13.433Z,26.57
2023-02-12T13:44:45.015Z,26.01
2023-02-12T13:46:16.548Z,26.44
2023-02-12T13:47:47.888Z,26.00
2023-02-12T13:49:19.262Z,26.30
2023-02-12T13:53:31.719Z,27.20
2023-02-12T13:55:13.291Z,26.29
2023-02-12T13:56:45.296Z,25.96
2023-02-12T13:58:52.298Z,25.53
2023-02-12T14:00:28.806Z,25.93
2023-02-12T14:02:00.845Z,25.86
2023-02-12T14:03:32.689Z,24.61
2023-02-12T14:05:04.487Z,25.08
2023-02-12T14:06:36.672Z,24.57
2023-02-12T14:08:08.672Z,25.51
2023-02-12T14:09:40.216Z,24.20
2023-02-12T14:12:06.250Z,23.15
2023-02-12T14:13:38.114Z,22.94
2023-02-12T14:16:03.451Z,23.86
2023-02-12T14:18:31.090Z,23.60
2023-02-12T14:20:03.939Z,24.10
2023-02-12T14:21:35.277Z,25.24
2023-02-12T14:23:06.648Z,24.30
2023-02-12T14:25:10.042Z,24.15
2023-02-12T14:26:51.396Z,25.21
2023-02-12T14:28:46.325Z,24.83
2023-02-12T14:30:18.626Z,24.47
2023-02-12T14:32:06.752Z,25.03
2023-02-12T14:34:05.066Z,24.28
2023-02-12T14:35:36.906Z,23.18
2023-02-12T14:37:28.348Z,24.68
2023-02-12T14:39:27.356Z,24.01
2023-02-12T14:41:26.596Z,24.65
2023-02-12T14:43:08.768Z,25.10
2023-02-12T14:47:11.714Z,25.60
2023-02-12T14:49:12.003Z,24.93
2023-02-12T14:51:11.402Z,24.66
2023-02-12T14:55:23.630Z,24.39
2023-02-12T14:57:11.802Z,24.71
2023-02-12T14:58:48.478Z,24.91
2023-02-12T15:00:45.698Z,25.27
2023-02-12T15:02:21.791Z,25.43
2023-02-12T15:04:29.632Z,25.24
2023-02-12T15:06:01.506Z,24.69
2023-02-12T15:07:33.365Z,24.89
2023-02-12T15:09:10.189Z,24.79
2023-02-12T15:10:41.897Z,26.10
2023-02-12T15:12:13.802Z,26.33
2023-02-12T15:14:06.949Z,26.80
2023-02-12T15:15:38.514Z,26.24
2023-02-12T15:17:10.616Z,26.73
2023-02-12T15:18:42.086Z,27.20
2023-02-12T15:20:13.578Z,26.34
2023-02-12T15:21:45.474Z,25.44
2023-02-12T15:23:17.109Z,26.50
2023-02-12T15:24:48.523Z,26.60
2023-02-12T15:26:20.186Z,26.24
2023-02-12T15:27:52.034Z,25.73
2023-02-12T15:29:23.604Z,24.97
2023-02-12T15:30:55.415Z,25.46
2023-02-12T15:32:32.655Z,24.70
2023-02-12T15:34:04.437Z,23.73
2023-02-12T15:35:38.518Z,23.14
2023-02-12T15:37:11.271Z,24.18
2023-02-12T15:38:42.811Z,24.40
2023-02-12T15:40:14.128Z,23.80
2023-02-12T15:41:45.738Z,24.43
2023-02-12T15:43:58.765Z,24.76
2023-02-12T15:45:30.470Z,24.08
2023-02-12T15:47:02.544Z,24.38
2023-02-12T15:48:34.088Z,24.52
2023-02-12T15:50:05.616Z,23.90
2023-02-12T15:51:37.550Z,24.70
2023-02-12T15:53:09.546Z,24.35
2023-02-12T15:54:41.246Z,24.65
2023-02-12T15:56:12.699Z,24.41
2023-02-12T15:57:45.678Z,24.63
2023-02-12T15:59:22.340Z,24.46
2023-02-12T16:00:54.071Z,24.35
2023-02-12T16:02:25.689Z,24.39
2023-02-12T16:03:57.223Z,24.19
2023-02-12T16:05:29.054Z,24.38
2023-02-12T16:07:03.064Z,25.15
2023-02-12T16:08:34.921Z,25.07
2023-02-12T16:10:06.713Z,24.62
2023-02-12T16:11:38.478Z,24.47
2023-02-12T16:13:15.781Z,24.60
2023-02-12T16:14:52.193Z,25.00
2023-02-12T16:16:41.889Z,25.28
2023-02-12T16:18:29.449Z,25.78
2023-02-12T16:20:36.243Z,25.34
2023-02-12T16:22:07.579Z,25.30
2023-02-12T16:23:43.661Z,25.40
2023-02-12T16:25:15.660Z,25.47
2023-02-12T16:26:46.991Z,25.19
2023-02-12T16:28:18.498Z,25.51
2023-02-12T16:30:12.119Z,25.46
2023-02-12T16:31:43.693Z,25.35
2023-02-12T16:33:30.985Z,25.91
2023-02-12T16:35:02.544Z,26.36
2023-02-12T16:36:33.923Z,26.08
2023-02-12T16:38:05.456Z,24.93
2023-02-12T16:39:36.936Z,25.41
2023-02-12T16:41:08.212Z,24.89
2023-02-12T16:42:58.672Z,25.12
2023-02-12T16:44:41.281Z,26.69
2023-02-12T16:46:12.739Z,26.43
2023-02-12T16:50:03.930Z,26.84
2023-02-12T16:53:36.305Z,26.41
2023-02-12T16:55:29.824Z,26.72
2023-02-12T16:57:01.639Z,28.16
2023-02-12T16:58:38.383Z,27.55
2023-02-12T17:00:11.521Z,27.29
2023-02-12T17:02:10.427Z,27.60
2023-02-12T17:03:42.168Z,27.32
2023-02-12T17:05:34.700Z,27.85
2023-02-12T17:07:06.047Z,27.94
2023-02-12T17:08:57.457Z,28.60
2023-02-12T17:10:51.148Z,28.65
2023-02-12T17:12:56.755Z,29.04
2023-02-12T17:14:32.165Z,29.14
2023-02-12T17:16:18.865Z,29.23
2023-02-12T17:18:00.090Z,30.08
2023-02-12T17:19:31.458Z,28.96
2023-02-12T17:21:35.225Z,29.49
2023-02-12T17:23:08.127Z,29.34
2023-02-12T17:24:55.412Z,30.01
2023-02-12T17:26:27.074Z,30.51
2023-02-12T17:27:58.866Z,30.67
2023-02-12T17:29:31.040Z,29.74
2023-02-12T17:31:02.654Z,29.38
2023-02-12T17:32:34.600Z,29.93
2023-02-12T17:34:46.539Z,29.97
2023-02-12T17:36:36.621Z,30.54
2023-02-12T17:38:08.521Z,30.23
2023-02-12T17:39:40.287Z,30.39
2023-02-12T17:41:18.233Z,30.27
2023-02-12T17:42:54.733Z,30.49
2023-02-12T17:44:26.058Z,30.72
2023-02-12T17:46:08.227Z,29.94
2023-02-12T17:47:39.830Z,30.36
2023-02-12T17:49:11.248Z,31.03
2023-02-12T17:50:42.807Z,30.24
2023-02-12T17:52:14.456Z,30.25
2023-02-12T17:53:46.249Z,29.90
2023-02-12T17:55:17.697Z,30.86
2023-02-12T17:56:49.123Z,31.19
2023-02-12T17:58:35.493Z,31.36
2023-02-12T18:00:18.853Z,31.10
2023-02-12T18:01:50.667Z,31.17
2023-02-12T18:03:24.156Z,30.65
2023-02-12T18:05:50.999Z,30.78
2023-02-12T18:07:28.045Z,30.05
2023-02-12T18:09:14.656Z,30.23
2023-02-12T18:10:46.325Z,29.93
2023-02-12T18:12:18.146Z,30.26
2023-02-12T18:14:16.271Z,29.97
2023-02-12T18:15:48.126Z,30.30
2023-02-12T18:17:20.031Z,30.38
2023-02-12T18:18:58.061Z,30.27
2023-02-12T18:20:30.003Z,30.28
2023-02-12T18:22:03.047Z,30.02
2023-02-12T18:23:34.585Z,29.70
2023-02-12T18:25:06.034Z,30.26
2023-02-12T18:26:47.718Z,30.12
2023-02-12T18:28:27.017Z,29.19
2023-02-12T18:29:59.358Z,28.86
2023-02-12T18:31:53.833Z,29.18
2023-02-12T18:33:26.417Z,28.74
2023-02-12T18:34:58.155Z,28.42
2023-02-12T18:36:29.994Z,28.34
2023-02-12T18:38:01.726Z,27.54
2023-02-12T18:39:33.266Z,28.45
2023-02-12T18:41:05.496Z,28.06
2023-02-12T18:42:37.265Z,27.52
2023-02-12T18:44:08.611Z,27.84
2023-02-12T18:45:40.547Z,27.78
2023-02-12T18:47:29.395Z,27.66
2023-02-12T18:49:00.826Z,26.81
2023-02-12T18:50:32.466Z,27.52
2023-02-12T18:52:04.428Z,27.06
2023-02-12T18:53:36.186Z,27.44
2023-02-12T18:55:07.852Z,26.33
2023-02-12T18:56:56.764Z,26.80
2023-02-12T18:58:46.208Z,26.36
2023-02-12T19:00:17.988Z,26.92
2023-02-12T19:01:49.993Z,26.90
2023-02-12T19:03:22.037Z,26.24
2023-02-12T19:04:53.855Z,26.95
2023-02-12T19:06:25.479Z,26.72
2023-02-12T19:07:57.520Z,26.84
2023-02-12T19:09:48.903Z,25.94
2023-02-12T19:11:21.912Z,25.84
2023-02-12T19:12:53.833Z,25.78
2023-02-12T19:14:25.699Z,25.90
2023-02-12T19:15:58.474Z,25.93
2023-02-12T19:17:30.690Z,25.88
2023-02-12T19:19:03.817Z,26.22
2023-02-12T19:20:36.775Z,26.32
2023-02-12T19:22:08.387Z,25.84
2023-02-12T19:23:40.231Z,25.91
2023-02-12T19:25:11.973Z,25.17
2023-02-12T19:26:44.104Z,25.38
2023-02-12T19:28:15.659Z,25.53
2023-02-12T19:29:47.249Z,25.22
2023-02-12T19:31:30.028Z,25.51
2023-02-12T19:33:01.993Z,25.80
2023-02-12T19:34:39.088Z,25.49
2023-02-12T19:36:10.800Z,26.46
2023-02-12T19:38:03.854Z,26.64
2023-02-12T19:39:35.696Z,26.08
2023-02-12T19:41:07.368Z,25.99
2023-02-12T19:42:38.814Z,24.99
2023-02-12T19:44:10.989Z,24.96
2023-02-12T19:45:42.701Z,24.39
2023-02-12T19:47:19.546Z,24.77
2023-02-12T19:48:51.796Z,24.99
2023-02-12T19:50:24.063Z,25.03
2023-02-12T19:51:56.402Z,24.65
2023-02-12T19:53:28.486Z,24.87
2023-02-12T19:55:00.829Z,25.58
2023-02-12T19:56:33.407Z,25.09
2023-02-12T19:58:05.613Z,25.10
2023-02-12T19:59:37.691Z,25.15
2023-02-12T20:01:09.348Z,25.55
2023-02-12T20:02:46.464Z,25.24
2023-02-12T20:04:19.444Z,25.52
2023-02-12T20:05:51.461Z,25.17
2023-02-12T20:07:23.315Z,25.44
2023-02-12T20:08:54.857Z,24.13
2023-02-12T20:10:26.495Z,24.66
2023-02-12T20:11:58.130Z,25.14
2023-02-12T20:13:32.670Z,24.89
2023-02-12T20:15:05.629Z,24.88
2023-02-12T20:16:38.144Z,24.93
2023-02-12T20:18:10.169Z,24.63
2023-02-12T20:19:41.978Z,25.43
2023-02-12T20:21:13.759Z,24.47
2023-02-12T20:22:45.316Z,24.08
2023-02-12T20:24:17.066Z,24.01
2023-02-12T20:25:48.596Z,24.04
2023-02-12T20:27:20.242Z,24.14